Time;durP1;ratioP1;P1;durP2;ratioP2;P2;SDS_P1;SDS_P2;PMS_P1;PMS_P2;Temp;Humidity;BMP_temperature;BMP_pressure;BME280_temperature;BME280_humidity;BME280_pressure;Samples;Min_cycle;Max_cycle;Signal;HPM_P1;HPM_P2
2022/12/23 00:01:12;;;;;;;16.63;8.70;;;7.90;99.90;;;;;;6118773;23;20411;-56
2022/12/23 00:03:41;;;;;;;10.90;6.77;;;7.90;99.90;;;;;;6121186;23;20396;-60
2022/12/23 00:06:09;;;;;;;16.60;7.40;;;7.90;99.90;;;;;;6121197;23;20435;-58
2022/12/23 00:08:37;;;;;;;14.83;7.97;;;7.90;99.90;;;;;;6122077;23;20439;-52
2022/12/23 00:11:05;;;;;;;13.10;8.27;;;7.90;99.90;;;;;;6121398;23;20428;-58
2022/12/23 00:16:16;;;;;;;11.27;6.40;;;7.80;99.90;;;;;;6121790;23;20439;-61
2022/12/23 00:18:45;;;;;;;13.90;6.83;;;7.80;99.90;;;;;;6122386;23;20403;-56
2022/12/23 00:21:16;;;;;;;16.00;7.17;;;7.90;99.90;;;;;;6121844;23;20427;-55
2022/12/23 00:23:44;;;;;;;10.20;6.67;;;7.90;99.90;;;;;;6122031;23;20399;-55
2022/12/23 00:26:21;;;;;;;15.40;7.73;;;7.90;99.90;;;;;;6121373;23;20451;-58
2022/12/23 00:28:48;;;;;;;16.03;9.00;;;7.90;99.90;;;;;;6121597;23;20391;-55
2022/12/23 00:31:18;;;;;;;14.77;7.70;;;7.90;99.90;;;;;;6121916;23;20391;-60
2022/12/23 00:33:53;;;;;;;17.80;8.90;;;7.90;99.90;;;;;;6120808;23;20384;-59
2022/12/23 00:36:22;;;;;;;18.70;7.17;;;7.90;99.90;;;;;;6120816;23;20418;-58
2022/12/23 00:44:22;;;;;;;13.10;7.50;;;7.90;99.90;;;;;;6120915;23;20451;-57
2022/12/23 00:46:50;;;;;;;13.30;7.73;;;7.90;99.90;;;;;;6120738;23;20410;-57
2022/12/23 00:52:05;;;;;;;15.13;8.90;;;7.90;99.90;;;;;;6121014;23;20375;-58
2022/12/23 00:54:33;;;;;;;14.53;7.03;;;7.90;99.90;;;;;;6119474;23;20434;-55
2022/12/23 00:57:01;;;;;;;18.90;7.50;;;7.90;99.90;;;;;;6119329;23;20392;-58
2022/12/23 00:59:28;;;;;;;20.03;9.30;;;7.90;99.90;;;;;;6119694;23;20455;-57
2022/12/23 01:07:33;;;;;;;11.47;6.53;;;8.00;99.90;;;;;;6118423;23;20412;-56
2022/12/23 01:10:00;;;;;;;13.60;6.70;;;8.00;99.90;;;;;;6118335;23;20412;-56
2022/12/23 01:12:27;;;;;;;13.10;7.53;;;8.00;99.90;;;;;;6118500;23;20396;-56
2022/12/23 01:14:53;;;;;;;10.87;6.77;;;8.00;99.90;;;;;;6118377;23;20399;-57
2022/12/23 01:17:20;;;;;;;14.60;6.87;;;8.00;99.90;;;;;;6119382;23;20403;-57
2022/12/23 01:19:49;;;;;;;13.23;7.27;;;8.00;99.90;;;;;;6120262;23;20403;-59
2022/12/23 01:22:17;;;;;;;15.60;8.30;;;8.00;99.90;;;;;;6118448;23;20443;-55
2022/12/23 01:24:44;;;;;;;13.43;6.47;;;8.00;99.90;;;;;;6118127;23;20539;-60
2022/12/23 01:27:11;;;;;;;12.63;6.13;;;8.10;99.90;;;;;;6118471;23;20431;-59
2022/12/23 01:29:38;;;;;;;13.63;6.67;;;8.00;99.90;;;;;;6118783;23;20392;-54
2022/12/23 01:32:05;;;;;;;12.00;6.97;;;8.00;99.90;;;;;;6118190;23;20439;-57
2022/12/23 01:34:32;;;;;;;12.97;6.70;;;8.00;99.90;;;;;;6120171;23;20419;-56
2022/12/23 01:37:00;;;;;;;9.10;5.90;;;8.00;99.90;;;;;;6120380;23;20407;-57
2022/12/23 01:39:29;;;;;;;13.60;8.30;;;8.00;99.90;;;;;;6120053;23;20424;-54
2022/12/23 01:44:58;;;;;;;11.10;6.40;;;8.00;99.90;;;;;;6118865;23;20471;-62
2022/12/23 01:47:32;;;;;;;14.63;8.50;;;8.00;99.90;;;;;;6119887;23;20395;-58
2022/12/23 01:50:07;;;;;;;19.80;8.37;;;8.00;99.90;;;;;;6119641;23;20439;-55
2022/12/23 01:52:44;;;;;;;15.23;7.73;;;8.00;99.90;;;;;;6118936;23;20384;-58
2022/12/23 01:55:14;;;;;;;17.23;8.30;;;8.00;99.90;;;;;;6121962;23;20411;-57
2022/12/23 01:57:43;;;;;;;17.27;10.20;;;8.00;99.90;;;;;;6121957;23;20411;-59
2022/12/23 02:05:46;;;;;;;14.40;7.40;;;8.00;99.90;;;;;;6121574;23;20411;-58
2022/12/23 02:11:34;;;;;;;19.40;8.57;;;8.00;99.90;;;;;;6122186;23;20388;-60
2022/12/23 02:17:09;;;;;;;14.10;7.90;;;8.00;99.90;;;;;;6121499;23;20380;-60
2022/12/23 02:20:07;;;;;;;18.43;9.20;;;7.90;99.90;;;;;;6121641;23;20442;-56
2022/12/23 02:22:57;;;;;;;13.67;7.57;;;7.90;99.90;;;;;;6112328;23;20391;-58
2022/12/23 02:25:51;;;;;;;15.17;8.27;;;7.90;99.90;;;;;;6120052;23;20450;-59
2022/12/23 02:28:45;;;;;;;16.73;8.53;;;7.90;99.90;;;;;;6121281;23;20436;-58
2022/12/23 02:31:26;;;;;;;20.40;9.63;;;7.80;99.90;;;;;;6097343;23;20439;-58
2022/12/23 02:34:02;;;;;;;19.17;7.67;;;7.80;99.90;;;;;;6121152;23;20454;-60
2022/12/23 02:36:41;;;;;;;16.27;7.60;;;7.80;99.90;;;;;;6121728;23;20407;-58
2022/12/23 02:39:16;;;;;;;19.07;8.70;;;7.80;99.90;;;;;;6121822;23;20376;-56
2022/12/23 02:41:51;;;;;;;12.87;6.80;;;7.90;99.90;;;;;;6120618;23;20407;-55
2022/12/23 02:44:26;;;;;;;15.60;7.97;;;7.90;99.90;;;;;;6121195;23;20391;-55
2022/12/23 02:47:03;;;;;;;17.80;8.10;;;7.90;99.90;;;;;;6121582;23;20402;-55
2022/12/23 02:49:38;;;;;;;13.23;7.33;;;7.90;99.90;;;;;;6121523;23;20431;-54
2022/12/23 02:52:09;;;;;;;16.60;8.37;;;7.90;99.90;;;;;;6121242;23;20387;-57
2022/12/23 02:54:43;;;;;;;10.87;6.50;;;7.90;99.90;;;;;;6121255;23;20439;-58
2022/12/23 02:57:19;;;;;;;12.50;7.07;;;7.90;99.90;;;;;;6121508;23;20392;-57
2022/12/23 02:59:50;;;;;;;18.50;7.30;;;8.00;99.90;;;;;;6121230;23;20442;-59
2022/12/23 03:02:18;;;;;;;17.10;9.63;;;8.00;99.90;;;;;;6121052;23;20427;-58
2022/12/23 03:04:45;;;;;;;13.73;7.00;;;8.10;99.90;;;;;;6120148;23;20423;-59
2022/12/23 03:07:18;;;;;;;15.87;8.77;;;8.10;99.90;;;;;;6114158;23;20403;-57
2022/12/23 03:09:54;;;;;;;18.77;8.23;;;8.10;99.90;;;;;;6121368;23;20392;-60
2022/12/23 03:12:32;;;;;;;17.40;7.10;;;8.10;99.90;;;;;;6120744;23;20427;-59
2022/12/23 03:15:12;;;;;;;12.60;8.33;;;8.10;99.90;;;;;;6120418;23;20399;-60
2022/12/23 03:17:53;;;;;;;14.47;7.47;;;8.10;99.90;;;;;;6120452;23;20435;-59
2022/12/23 03:20:26;;;;;;;14.43;7.53;;;8.10;99.90;;;;;;6120685;23;20426;-60
2022/12/23 03:23:03;;;;;;;15.37;7.50;;;8.10;99.90;;;;;;6120873;23;20385;-60
2022/12/23 03:25:49;;;;;;;12.40;7.40;;;8.10;99.90;;;;;;6113289;23;20451;-60
2022/12/23 03:28:23;;;;;;;19.17;9.30;;;8.10;99.90;;;;;;6122027;23;20488;-58
2022/12/23 03:30:59;;;;;;;12.93;8.43;;;8.10;99.90;;;;;;6121023;23;20428;-59
2022/12/23 03:33:37;;;;;;;17.37;7.70;;;8.00;99.90;;;;;;6121340;23;20378;-58
2022/12/23 03:36:16;;;;;;;12.50;6.60;;;8.00;99.90;;;;;;6120657;23;20415;-58
2022/12/23 03:38:44;;;;;;;20.90;8.33;;;8.00;99.90;;;;;;6121103;23;20396;-59
2022/12/23 03:41:17;;;;;;;16.50;7.17;;;8.00;99.90;;;;;;6113573;23;20404;-59
2022/12/23 03:43:48;;;;;;;19.67;8.97;;;8.00;99.90;;;;;;6120014;23;20392;-59
2022/12/23 03:46:23;;;;;;;17.57;8.23;;;8.00;99.90;;;;;;6120616;23;20419;-57
2022/12/23 03:48:56;;;;;;;20.00;8.83;;;8.00;99.90;;;;;;6121157;23;20431;-59
2022/12/23 03:51:29;;;;;;;15.23;6.57;;;8.10;99.90;;;;;;6120738;23;20402;-59
2022/12/23 03:53:59;;;;;;;19.27;8.63;;;8.00;99.90;;;;;;6119929;23;20392;-58
2022/12/23 03:56:34;;;;;;;17.37;8.23;;;8.10;99.90;;;;;;6120579;23;20395;-58
2022/12/23 03:59:08;;;;;;;11.13;7.73;;;8.10;99.90;;;;;;6121186;23;20837;-60
2022/12/23 04:01:42;;;;;;;16.97;7.77;;;8.20;99.90;;;;;;6120771;23;20418;-57
2022/12/23 04:04:16;;;;;;;18.87;7.80;;;8.10;99.90;;;;;;6120742;23;20395;-56
2022/12/23 04:06:50;;;;;;;15.23;7.67;;;8.10;99.90;;;;;;6119777;23;20475;-57
2022/12/23 04:09:22;;;;;;;13.03;8.17;;;8.10;99.90;;;;;;6119853;23;20403;-58
2022/12/23 04:11:49;;;;;;;25.13;9.47;;;8.10;99.90;;;;;;6120419;23;20388;-59
2022/12/23 04:14:17;;;;;;;17.73;9.07;;;8.10;99.90;;;;;;6119998;23;20431;-58
2022/12/23 04:16:46;;;;;;;15.87;8.23;;;8.10;99.90;;;;;;6120832;23;20460;-59
2022/12/23 04:19:15;;;;;;;12.50;7.17;;;8.10;99.90;;;;;;6120190;23;20435;-57
2022/12/23 04:21:44;;;;;;;12.03;6.90;;;8.10;99.90;;;;;;6119460;23;20415;-57
2022/12/23 04:24:11;;;;;;;14.67;8.13;;;8.00;99.90;;;;;;6120216;23;20403;-56
2022/12/23 04:26:38;;;;;;;14.90;8.03;;;8.00;99.90;;;;;;6119855;23;20450;-60
2022/12/23 04:29:06;;;;;;;22.57;10.10;;;8.00;99.90;;;;;;6119971;23;20699;-53
2022/12/23 04:31:33;;;;;;;14.60;7.43;;;8.00;99.90;;;;;;6119645;23;20443;-55
2022/12/23 04:34:00;;;;;;;15.70;8.07;;;8.00;99.90;;;;;;6120146;23;20391;-57
2022/12/23 04:36:32;;;;;;;21.03;8.03;;;8.00;99.90;;;;;;6119634;23;20404;-60
2022/12/23 04:38:58;;;;;;;17.60;7.50;;;8.10;99.90;;;;;;6120152;23;20491;-59
2022/12/23 04:41:25;;;;;;;14.17;7.50;;;8.10;99.90;;;;;;6119941;23;20400;-59
2022/12/23 04:43:57;;;;;;;18.50;9.10;;;8.10;99.90;;;;;;6119356;23;20427;-54
2022/12/23 04:46:24;;;;;;;14.70;7.50;;;8.10;99.90;;;;;;6119892;23;20418;-58
2022/12/23 04:48:53;;;;;;;16.27;8.27;;;8.20;99.90;;;;;;6121155;23;20408;-57
2022/12/23 04:51:22;;;;;;;17.17;7.60;;;8.20;99.90;;;;;;6121491;23;20419;-56
2022/12/23 04:53:56;;;;;;;22.17;9.60;;;8.10;99.90;;;;;;6120735;23;20410;-60
2022/12/23 04:56:23;;;;;;;20.47;8.73;;;8.20;99.90;;;;;;6120673;23;20422;-58
2022/12/23 04:58:50;;;;;;;16.13;7.80;;;8.20;99.90;;;;;;6120475;23;20402;-59
2022/12/23 05:01:17;;;;;;;20.00;11.80;;;8.20;99.90;;;;;;6119918;23;20438;-57
2022/12/23 05:03:47;;;;;;;19.00;9.13;;;8.20;99.90;;;;;;6120119;23;20416;-58
2022/12/23 05:06:14;;;;;;;18.07;9.90;;;8.20;99.90;;;;;;6115664;23;20439;-59
2022/12/23 05:08:40;;;;;;;17.73;8.03;;;8.20;99.90;;;;;;6120000;23;20486;-59
2022/12/23 05:11:09;;;;;;;19.27;8.40;;;8.20;99.90;;;;;;6120290;23;20407;-59
2022/12/23 05:13:37;;;;;;;16.27;7.60;;;8.20;99.90;;;;;;6115108;23;20533;-59
2022/12/23 05:16:05;;;;;;;16.97;8.63;;;8.20;99.90;;;;;;6120726;23;20396;-58
2022/12/23 05:18:31;;;;;;;16.87;8.10;;;8.20;99.90;;;;;;6120117;23;20422;-60
2022/12/23 05:21:00;;;;;;;19.87;9.37;;;8.20;99.90;;;;;;6119935;23;20823;-59
2022/12/23 05:23:28;;;;;;;20.40;8.50;;;8.20;99.90;;;;;;6121221;23;20411;-54
2022/12/23 05:25:57;;;;;;;14.90;8.83;;;8.20;99.90;;;;;;6120640;23;21045;-59
2022/12/23 05:28:25;;;;;;;14.33;6.97;;;8.20;99.90;;;;;;6120709;23;20427;-59
2022/12/23 05:30:58;;;;;;;12.40;6.40;;;8.30;99.90;;;;;;6121311;23;20462;-59
2022/12/23 05:33:25;;;;;;;15.23;6.87;;;8.30;99.90;;;;;;6121255;23;20459;-59
2022/12/23 05:35:52;;;;;;;11.97;6.53;;;8.30;99.90;;;;;;6121409;23;20411;-53
2022/12/23 05:38:19;;;;;;;14.10;6.63;;;8.30;99.90;;;;;;6120399;23;20411;-58
2022/12/23 05:40:46;;;;;;;11.97;7.03;;;8.30;99.90;;;;;;6121390;23;20403;-62
2022/12/23 05:43:13;;;;;;;16.00;7.20;;;8.30;99.90;;;;;;6121157;23;20404;-57
2022/12/23 05:45:41;;;;;;;15.87;7.30;;;8.30;99.90;;;;;;6120880;23;20454;-60
2022/12/23 05:48:11;;;;;;;11.00;6.23;;;8.30;99.90;;;;;;6120898;23;20404;-60
2022/12/23 05:50:39;;;;;;;14.17;6.90;;;8.40;99.90;;;;;;6122268;23;20396;-60
2022/12/23 05:53:06;;;;;;;16.73;8.30;;;8.40;99.90;;;;;;6122248;23;20422;-58
2022/12/23 05:55:33;;;;;;;13.97;7.40;;;8.40;99.90;;;;;;6121497;23;20411;-60
2022/12/23 05:58:00;;;;;;;14.10;8.33;;;8.40;99.90;;;;;;6121489;23;20431;-58
2022/12/23 06:00:29;;;;;;;16.07;6.43;;;8.40;99.90;;;;;;6121457;23;20863;-60
2022/12/23 06:02:57;;;;;;;16.97;7.47;;;8.40;99.90;;;;;;6121400;23;20403;-59
2022/12/23 06:05:24;;;;;;;14.83;8.20;;;8.40;99.90;;;;;;6120772;23;20431;-57
2022/12/23 06:07:53;;;;;;;17.33;9.67;;;8.30;99.90;;;;;;6121487;23;20430;-58
2022/12/23 06:10:24;;;;;;;16.07;8.40;;;8.30;99.90;;;;;;6121866;23;20432;-59
2022/12/23 06:12:51;;;;;;;15.20;7.50;;;8.40;99.90;;;;;;6121642;23;20411;-59
2022/12/23 06:15:23;;;;;;;14.87;6.07;;;8.30;99.90;;;;;;6121669;23;20419;-59
2022/12/23 06:17:50;;;;;;;18.00;8.20;;;8.30;99.90;;;;;;6118400;23;20384;-60
2022/12/23 06:20:18;;;;;;;13.20;6.63;;;8.30;99.90;;;;;;6115589;23;20414;-60
2022/12/23 06:22:45;;;;;;;17.60;8.10;;;8.30;99.90;;;;;;6116152;23;20427;-60
2022/12/23 06:25:12;;;;;;;13.97;7.57;;;8.30;99.90;;;;;;6119108;23;20933;-57
2022/12/23 06:27:45;;;;;;;17.23;7.60;;;8.30;99.90;;;;;;6121101;23;20430;-57
2022/12/23 06:30:16;;;;;;;14.90;7.93;;;8.30;99.90;;;;;;6120581;23;20420;-57
2022/12/23 06:32:43;;;;;;;13.67;7.20;;;8.30;99.90;;;;;;6119984;23;20428;-57
2022/12/23 06:35:10;;;;;;;16.27;8.90;;;8.30;99.90;;;;;;6119889;23;20427;-54
2022/12/23 06:37:38;;;;;;;15.00;6.87;;;8.30;99.90;;;;;;6120312;23;20404;-55
2022/12/23 06:40:10;;;;;;;16.03;8.00;;;8.30;99.90;;;;;;6122246;23;20403;-59
2022/12/23 06:42:41;;;;;;;14.40;6.43;;;8.30;99.90;;;;;;6121798;23;20391;-56
2022/12/23 06:45:09;;;;;;;14.53;7.03;;;8.20;99.90;;;;;;6121908;23;20430;-59
2022/12/23 06:47:38;;;;;;;14.57;9.00;;;8.20;99.90;;;;;;6121851;23;20451;-57
2022/12/23 06:50:06;;;;;;;16.07;7.90;;;8.30;99.90;;;;;;6118011;23;20408;-59
2022/12/23 06:52:33;;;;;;;13.70;8.67;;;8.30;99.90;;;;;;6120790;23;20408;-57
2022/12/23 06:55:05;;;;;;;14.30;7.20;;;8.30;99.90;;;;;;6121560;23;20414;-57
2022/12/23 06:57:32;;;;;;;18.37;6.93;;;8.30;99.90;;;;;;6121408;23;20384;-58
2022/12/23 07:00:02;;;;;;;17.73;7.00;;;8.20;99.90;;;;;;6115718;23;20420;-53
2022/12/23 07:02:29;;;;;;;18.17;8.23;;;8.20;99.90;;;;;;6121726;23;20407;-56
2022/12/23 07:04:56;;;;;;;18.73;7.70;;;8.20;99.90;;;;;;6121854;23;20432;-55
2022/12/23 07:07:23;;;;;;;14.80;8.10;;;8.20;99.90;;;;;;6122946;23;20427;-58
2022/12/23 07:09:52;;;;;;;17.07;9.07;;;8.20;99.90;;;;;;6123045;23;20418;-58
2022/12/23 07:12:20;;;;;;;16.40;7.97;;;8.20;99.90;;;;;;6122409;23;20639;-58
2022/12/23 07:14:47;;;;;;;14.80;6.60;;;8.20;99.90;;;;;;6122028;23;20408;-54
2022/12/23 07:17:14;;;;;;;20.13;9.50;;;8.20;99.90;;;;;;6120902;23;20410;-55
2022/12/23 07:19:43;;;;;;;12.10;7.70;;;8.20;99.90;;;;;;6121252;23;20403;-57
2022/12/23 07:22:10;;;;;;;22.07;8.17;;;8.20;99.90;;;;;;6115253;23;20423;-57
2022/12/23 07:24:37;;;;;;;21.27;8.57;;;8.20;99.90;;;;;;6120604;23;20865;-57
2022/12/23 07:27:07;;;;;;;16.63;7.77;;;8.30;99.90;;;;;;6120801;23;20444;-56
2022/12/23 07:29:35;;;;;;;13.77;6.83;;;8.30;99.90;;;;;;6121847;23;20615;-58
2022/12/23 07:32:02;;;;;;;20.17;8.90;;;8.30;99.90;;;;;;6115947;23;20392;-59
2022/12/23 07:34:29;;;;;;;18.23;9.00;;;8.30;99.90;;;;;;6121330;23;20404;-57
2022/12/23 07:36:56;;;;;;;15.63;7.50;;;8.20;99.90;;;;;;6117389;23;20427;-57
2022/12/23 07:39:23;;;;;;;15.00;7.27;;;8.30;99.90;;;;;;6121607;23;20440;-61
2022/12/23 07:41:50;;;;;;;15.37;7.33;;;8.20;99.90;;;;;;6120908;23;20439;-59
2022/12/23 07:44:17;;;;;;;18.70;7.50;;;8.20;99.90;;;;;;6121176;23;20436;-62
2022/12/23 07:46:45;;;;;;;14.13;6.93;;;8.20;99.90;;;;;;6121065;23;20482;-60
2022/12/23 07:49:12;;;;;;;16.27;7.60;;;8.20;99.90;;;;;;6115636;23;20482;-59
2022/12/23 07:51:39;;;;;;;12.83;6.90;;;8.10;99.90;;;;;;6120441;23;20404;-65
2022/12/23 07:54:07;;;;;;;9.57;5.53;;;8.20;99.90;;;;;;6120116;23;20418;-61
2022/12/23 07:56:35;;;;;;;20.20;7.33;;;8.20;99.90;;;;;;6120063;23;20423;-61
2022/12/23 07:59:04;;;;;;;12.60;5.37;;;8.30;99.90;;;;;;6121294;23;20426;-62
2022/12/23 08:01:31;;;;;;;14.60;6.27;;;8.40;99.90;;;;;;6120863;23;20924;-61
2022/12/23 08:04:02;;;;;;;11.70;5.23;;;8.40;99.90;;;;;;6120152;23;20443;-61
2022/12/23 08:06:29;;;;;;;10.20;4.87;;;8.40;99.90;;;;;;6120298;23;20431;-61
2022/12/23 08:08:56;;;;;;;15.17;5.70;;;8.40;99.90;;;;;;6120447;23;20415;-60
2022/12/23 08:11:28;;;;;;;10.13;4.70;;;8.50;99.90;;;;;;6120729;23;20403;-57
2022/12/23 08:13:58;;;;;;;17.97;5.77;;;8.40;99.90;;;;;;6120818;23;20414;-63
2022/12/23 08:16:25;;;;;;;18.63;5.83;;;8.40;99.90;;;;;;6116140;23;20388;-60
2022/12/23 08:18:51;;;;;;;15.87;6.00;;;8.40;99.90;;;;;;6120938;23;20418;-56
2022/12/23 08:21:20;;;;;;;14.73;5.53;;;8.40;99.90;;;;;;6120974;23;20463;-58
2022/12/23 08:23:48;;;;;;;12.10;5.67;;;8.40;99.90;;;;;;6115263;23;20395;-61
2022/12/23 08:26:17;;;;;;;10.37;4.73;;;8.40;99.90;;;;;;6120254;23;20435;-61
2022/12/23 08:28:45;;;;;;;11.60;4.80;;;8.40;99.90;;;;;;6122228;23;20388;-57
2022/12/23 08:31:13;;;;;;;14.63;6.23;;;8.40;99.90;;;;;;6120369;23;20399;-61
2022/12/23 08:33:42;;;;;;;15.63;4.53;;;8.30;99.90;;;;;;6121623;23;20439;-62
2022/12/23 08:36:13;;;;;;;11.83;5.63;;;8.40;99.90;;;;;;6120629;23;20400;-60
2022/12/23 08:38:41;;;;;;;14.53;5.77;;;8.40;99.90;;;;;;6121057;23;20471;-63
2022/12/23 08:41:11;;;;;;;8.80;4.53;;;8.30;99.90;;;;;;6120796;23;20392;-63
2022/12/23 08:43:37;;;;;;;16.37;5.80;;;8.30;99.90;;;;;;6119173;23;20435;-59
2022/12/23 08:46:10;;;;;;;14.80;5.93;;;8.30;99.90;;;;;;6120897;23;20443;-62
2022/12/23 08:48:37;;;;;;;12.20;5.27;;;8.30;99.90;;;;;;6120147;23;20459;-58
2022/12/23 08:51:06;;;;;;;12.17;5.77;;;8.40;99.90;;;;;;6119708;23;20407;-61
2022/12/23 08:53:33;;;;;;;16.27;6.33;;;8.40;99.90;;;;;;6119427;23;20426;-57
2022/12/23 08:56:10;;;;;;;12.40;5.67;;;8.50;99.90;;;;;;6120628;23;20419;-58
2022/12/23 08:58:39;;;;;;;14.10;5.50;;;8.50;99.90;;;;;;6120004;23;20427;-60
2022/12/23 09:01:07;;;;;;;9.93;5.63;;;8.50;99.90;;;;;;6120144;23;20408;-60
2022/12/23 09:03:37;;;;;;;13.87;5.00;;;8.50;99.90;;;;;;6119329;23;20432;-62
2022/12/23 09:06:05;;;;;;;8.80;4.60;;;8.50;99.90;;;;;;6119598;23;20415;-58
2022/12/23 09:08:31;;;;;;;13.63;6.03;;;8.50;99.90;;;;;;6119039;23;20439;-60
2022/12/23 09:11:10;;;;;;;16.60;7.07;;;8.40;99.90;;;;;;6120601;23;20424;-63
2022/12/23 09:13:39;;;;;;;12.93;5.03;;;8.50;99.90;;;;;;6120404;23;20376;-66
2022/12/23 09:16:07;;;;;;;17.43;5.33;;;8.40;99.90;;;;;;6122153;23;20435;-62
2022/12/23 09:18:35;;;;;;;11.67;5.13;;;8.50;99.90;;;;;;6120249;23;20410;-62
2022/12/23 09:21:04;;;;;;;13.57;4.10;;;8.50;99.90;;;;;;6119342;23;20436;-60
2022/12/23 09:23:31;;;;;;;11.20;5.00;;;8.40;99.90;;;;;;6120189;23;20407;-61
2022/12/23 09:25:58;;;;;;;14.30;4.53;;;8.50;99.90;;;;;;6111175;23;20897;-63
2022/12/23 09:28:30;;;;;;;13.40;5.30;;;8.50;99.90;;;;;;6119158;23;20430;-60
2022/12/23 09:30:57;;;;;;;6.67;4.30;;;8.60;99.90;;;;;;6120247;23;20388;-62
2022/12/23 09:33:24;;;;;;;8.33;3.87;;;8.60;99.90;;;;;;6120360;23;20411;-60
2022/12/23 09:35:53;;;;;;;11.03;4.37;;;8.50;99.90;;;;;;6120732;23;20428;-58
2022/12/23 09:38:20;;;;;;;7.73;4.00;;;8.50;99.90;;;;;;6119624;23;20439;-60
2022/12/23 09:40:47;;;;;;;6.47;4.20;;;8.50;99.90;;;;;;6119847;23;20403;-63
2022/12/23 09:43:31;;;;;;;10.07;3.67;;;8.50;99.90;;;;;;6120884;23;20437;-61
2022/12/23 09:46:06;;;;;;;9.70;4.40;;;8.40;99.90;;;;;;6114366;23;20391;-61
2022/12/23 09:48:38;;;;;;;7.63;4.97;;;8.40;99.90;;;;;;6120600;23;20474;-62
2022/12/23 09:51:06;;;;;;;7.70;3.83;;;8.40;99.90;;;;;;6120717;23;20419;-59
2022/12/23 09:53:45;;;;;;;11.93;4.50;;;8.30;99.90;;;;;;6120305;23;20404;-62
2022/12/23 09:56:19;;;;;;;9.03;4.07;;;8.40;99.90;;;;;;6120728;23;20399;-62
2022/12/23 09:58:58;;;;;;;13.50;4.60;;;8.40;99.90;;;;;;6120351;23;20388;-55
2022/12/23 10:01:36;;;;;;;8.57;4.27;;;8.50;99.90;;;;;;6119740;23;20403;-58
2022/12/23 10:04:32;;;;;;;11.13;3.60;;;8.50;99.90;;;;;;6120466;23;20396;-57
2022/12/23 10:07:18;;;;;;;8.97;4.00;;;8.50;99.90;;;;;;6120710;23;20478;-61
2022/12/23 10:09:49;;;;;;;8.27;4.63;;;8.40;99.90;;;;;;6110938;23;20392;-59
2022/12/23 10:12:31;;;;;;;13.30;5.30;;;8.30;99.90;;;;;;6121281;23;20435;-59
2022/12/23 10:15:03;;;;;;;11.03;4.40;;;8.30;99.90;;;;;;6118824;23;20382;-60
2022/12/23 10:17:35;;;;;;;8.40;4.00;;;8.30;99.90;;;;;;6121777;23;20451;-56
2022/12/23 10:20:05;;;;;;;10.10;3.80;;;8.20;99.90;;;;;;6116533;23;20372;-59
2022/12/23 10:22:37;;;;;;;14.33;5.50;;;8.20;99.90;;;;;;6122815;23;20486;-62
2022/12/23 10:25:14;;;;;;;10.40;5.30;;;8.30;99.90;;;;;;6123335;23;20387;-60
2022/12/23 10:27:44;;;;;;;14.83;5.27;;;8.30;99.90;;;;;;6123477;23;20438;-59
2022/12/23 10:30:19;;;;;;;10.90;5.47;;;8.40;99.90;;;;;;6122116;23;20395;-56
2022/12/23 10:32:59;;;;;;;19.73;6.47;;;8.40;99.90;;;;;;6121348;23;20387;-58
2022/12/23 10:35:47;;;;;;;15.53;4.40;;;8.50;99.90;;;;;;6121192;23;20406;-58
2022/12/23 10:38:31;;;;;;;8.23;5.17;;;8.50;99.90;;;;;;6121879;23;20368;-57
2022/12/23 10:41:09;;;;;;;13.50;5.80;;;8.50;99.90;;;;;;6122198;23;20387;-56
2022/12/23 10:43:48;;;;;;;12.97;5.30;;;8.50;99.90;;;;;;6122563;23;20395;-59
2022/12/23 10:46:24;;;;;;;13.30;6.20;;;8.60;99.90;;;;;;6122483;23;20387;-59
2022/12/23 10:49:02;;;;;;;13.60;5.43;;;8.60;99.90;;;;;;6119189;23;20427;-58
2022/12/23 10:51:34;;;;;;;14.10;4.73;;;8.70;99.90;;;;;;6123247;23;20426;-56
2022/12/23 10:54:05;;;;;;;11.60;5.43;;;8.80;99.90;;;;;;6121386;23;20392;-57
2022/12/23 10:56:32;;;;;;;9.37;4.73;;;8.90;99.90;;;;;;6121293;23;20430;-56
2022/12/23 10:59:00;;;;;;;10.00;5.80;;;9.00;99.90;;;;;;6116318;23;20398;-57
2022/12/23 11:01:30;;;;;;;10.20;5.43;;;9.10;99.90;;;;;;6112503;23;20898;-57
2022/12/23 11:04:06;;;;;;;14.33;6.23;;;9.20;99.90;;;;;;6121367;23;20399;-59
2022/12/23 11:06:38;;;;;;;12.20;5.80;;;9.20;99.90;;;;;;6121797;23;20675;-55
2022/12/23 11:09:09;;;;;;;12.43;5.83;;;9.10;99.90;;;;;;6122677;23;20716;-58
2022/12/23 11:11:53;;;;;;;8.43;5.80;;;9.10;99.90;;;;;;6121266;23;20392;-58
2022/12/23 11:14:34;;;;;;;10.80;5.30;;;9.20;99.90;;;;;;6121156;23;20463;-58
2022/12/23 11:17:03;;;;;;;13.00;5.40;;;9.20;99.90;;;;;;6120922;23;20415;-58
2022/12/23 11:19:30;;;;;;;13.80;6.23;;;9.20;99.90;;;;;;6116911;23;20450;-58
2022/12/23 11:21:59;;;;;;;12.43;6.60;;;9.30;99.90;;;;;;6121819;23;20412;-58
2022/12/23 11:24:31;;;;;;;10.90;5.67;;;9.30;99.90;;;;;;6115151;23;20435;-62
2022/12/23 11:27:06;;;;;;;11.67;5.40;;;9.30;99.90;;;;;;6122230;23;20392;-64
2022/12/23 11:29:35;;;;;;;8.67;5.10;;;9.30;99.90;;;;;;6116908;23;20387;-56
2022/12/23 11:32:15;;;;;;;15.90;7.10;;;9.30;99.90;;;;;;6122538;23;20419;-57
2022/12/23 11:34:45;;;;;;;10.90;6.33;;;9.30;99.90;;;;;;6121801;23;20395;-57
2022/12/23 11:37:25;;;;;;;10.63;6.27;;;9.30;99.90;;;;;;6121888;23;20490;-57
2022/12/23 11:39:52;;;;;;;11.70;5.80;;;9.20;99.90;;;;;;6121287;23;20384;-56
2022/12/23 11:42:26;;;;;;;12.67;6.47;;;9.10;99.90;;;;;;6121537;23;20430;-57
2022/12/23 11:44:54;;;;;;;8.90;5.37;;;9.10;99.90;;;;;;6120832;23;20396;-58
2022/12/23 11:47:29;;;;;;;12.30;5.93;;;9.00;99.90;;;;;;6121174;23;20549;-58
2022/12/23 11:49:58;;;;;;;13.27;6.13;;;9.00;99.90;;;;;;6113321;23;20405;-57
2022/12/23 11:52:26;;;;;;;14.53;8.10;;;9.00;99.90;;;;;;6121653;23;20392;-60
2022/12/23 11:54:55;;;;;;;11.63;5.60;;;9.00;99.90;;;;;;6120685;23;20475;-56
2022/12/23 11:57:31;;;;;;;11.40;7.40;;;9.00;99.90;;;;;;6120328;23;20400;-57
2022/12/23 12:00:03;;;;;;;10.57;6.60;;;9.00;99.90;;;;;;6118812;23;20435;-57
2022/12/23 12:02:38;;;;;;;15.53;5.87;;;9.00;99.90;;;;;;6117605;23;20376;-58
2022/12/23 12:05:16;;;;;;;13.80;7.83;;;9.00;99.90;;;;;;6121775;23;20506;-55
2022/12/23 12:07:45;;;;;;;13.70;7.97;;;8.90;99.90;;;;;;6121409;23;20435;-58
2022/12/23 12:10:18;;;;;;;12.87;8.20;;;8.90;99.90;;;;;;6121565;23;20412;-59
2022/12/23 12:12:45;;;;;;;13.10;6.40;;;9.00;99.90;;;;;;6120577;23;20392;-58
2022/12/23 12:15:26;;;;;;;18.77;9.00;;;8.90;99.90;;;;;;6119978;23;20395;-57
2022/12/23 12:17:55;;;;;;;14.27;7.40;;;8.90;99.90;;;;;;6121757;23;20434;-58
2022/12/23 12:20:28;;;;;;;11.10;5.13;;;8.80;99.90;;;;;;6122256;23;20411;-57
2022/12/23 12:22:59;;;;;;;10.70;5.83;;;8.80;99.90;;;;;;6114491;23;20442;-55
2022/12/23 12:25:38;;;;;;;12.57;6.10;;;8.80;99.90;;;;;;6121521;23;20400;-59
2022/12/23 12:28:10;;;;;;;11.50;6.50;;;8.70;99.90;;;;;;6119734;23;20451;-57
2022/12/23 12:30:43;;;;;;;12.90;5.37;;;8.70;99.90;;;;;;6120427;23;20399;-58
2022/12/23 12:33:27;;;;;;;12.57;6.30;;;8.70;99.90;;;;;;6120462;23;20422;-58
2022/12/23 12:36:06;;;;;;;8.93;5.20;;;8.80;99.90;;;;;;6121098;23;20388;-57
2022/12/23 12:38:36;;;;;;;12.40;5.70;;;8.70;99.90;;;;;;6120630;23;20399;-54
2022/12/23 12:41:13;;;;;;;10.20;5.53;;;8.80;99.90;;;;;;6120714;23;20393;-54
2022/12/23 12:43:46;;;;;;;9.07;5.70;;;8.80;99.90;;;;;;6120919;23;20372;-58
2022/12/23 12:46:25;;;;;;;6.83;4.33;;;8.90;99.90;;;;;;6121207;23;20420;-61
2022/12/23 12:48:59;;;;;;;8.17;4.93;;;8.90;99.90;;;;;;6122169;23;20446;-58
2022/12/23 12:51:37;;;;;;;11.93;5.10;;;8.90;99.90;;;;;;6120689;23;20427;-58
2022/12/23 12:54:12;;;;;;;6.67;4.50;;;8.90;99.90;;;;;;6120942;23;20379;-63
2022/12/23 12:56:45;;;;;;;7.53;4.80;;;9.00;99.90;;;;;;6114995;23;20387;-56
2022/12/23 12:59:16;;;;;;;5.90;3.97;;;9.00;99.90;;;;;;6121236;23;20893;-57
2022/12/23 13:01:52;;;;;;;8.97;5.03;;;9.00;99.90;;;;;;6120527;23;20393;-58
2022/12/23 13:04:57;;;;;;;6.63;3.83;;;9.00;99.90;;;;;;6120840;23;20434;-57
2022/12/23 13:07:35;;;;;;;7.43;4.37;;;9.00;99.90;;;;;;6120168;23;20415;-59
2022/12/23 13:10:12;;;;;;;5.93;4.00;;;9.00;99.90;;;;;;6120354;23;20416;-58
2022/12/23 13:12:50;;;;;;;7.67;4.90;;;8.90;99.90;;;;;;6115494;23;20417;-58
2022/12/23 13:15:23;;;;;;;7.27;4.33;;;8.90;99.90;;;;;;6119244;23;20372;-56
2022/12/23 13:18:04;;;;;;;8.83;5.10;;;8.90;99.90;;;;;;6121360;23;20388;-55
2022/12/23 13:20:40;;;;;;;7.00;4.07;;;8.90;99.90;;;;;;6120450;23;20412;-58
2022/12/23 13:23:18;;;;;;;7.60;4.80;;;8.90;99.90;;;;;;6120920;23;20415;-59
2022/12/23 13:25:51;;;;;;;8.30;5.17;;;8.90;99.90;;;;;;6119735;23;20391;-57
2022/12/23 13:28:30;;;;;;;5.90;4.43;;;8.80;99.90;;;;;;6119903;23;20456;-56
2022/12/23 13:31:04;;;;;;;9.10;6.00;;;8.80;99.90;;;;;;6120281;23;20388;-54
2022/12/23 13:33:40;;;;;;;7.07;4.87;;;8.90;99.90;;;;;;6120426;23;20387;-59
2022/12/23 13:36:20;;;;;;;7.53;5.07;;;8.90;99.90;;;;;;6120836;23;20399;-54
2022/12/23 13:38:59;;;;;;;5.20;4.00;;;9.00;99.90;;;;;;6114120;23;20384;-59
2022/12/23 13:41:32;;;;;;;7.20;5.20;;;9.00;99.90;;;;;;6120192;23;20442;-56